• Join FlightAware (Why Join?)
  • Login
  • US Flag 
04:47PM EDT


 

Airport Tracker/Info


-or-


 

Live Flight TrackerFlight Track Log ✈ N6ZQ ✈ 04-Jan-2014 ✈ 42J - KXFL

Flight Track Log - Related Links

Times and Time Zones

All times are in EST time to prevent confusion due to time zone crossing. See the N6ZQ flight status page for this flight to view local times or setup timezone preferences in your user account.

Time Position Orientation Groundspeed Altitude Reporting Facility
EST Latitude Longitude Course Direction KTS MPH feet Rate Location/Type
10:21AM 29.8356 -82.0353 127° Southeast 117 135 1,100  Level Jacksonville Center
10:23AM 29.8125 -81.9997 127° Southeast 145 167 2,000 480 Climbing Jacksonville Center
10:24AM 29.7975 -81.9544 111° Southeast 141 162 2,100  Climbing Jacksonville Center
10:25AM 29.7867 -81.9114 106° East 142 163 2,100 -60 Level Jacksonville Center
10:26AM 29.7800 -81.8683 100° East 134 154 2,000  Descending Jacksonville Center
10:27AM 29.7653 -81.8278 113° Southeast 135 155 2,100  Climbing Jacksonville Center
10:27AM 29.7589 -81.8111 114° Southeast 136 157 2,000 780 Descending Jacksonville Center
10:29AM 29.7311 -81.7517 118° Southeast 124 143 3,900 720 Climbing Jacksonville Center
10:30AM 29.7100 -81.7183 126° Southeast 146 168 4,000  Climbing Jacksonville Center
10:31AM 29.6928 -81.6708 113° Southeast 147 169 4,000  Level Jacksonville Center
10:32AM 29.6694 -81.6328 125° Southeast 150 173 4,000  Level Jacksonville Center
10:33AM 29.6522 -81.5925 116° Southeast 147 169 4,000  Level Jacksonville Center
10:34AM 29.6353 -81.5472 113° Southeast 150 173 4,000  Level Jacksonville Center
10:35AM 29.6161 -81.5117 122° Southeast 148 170 4,000 -240 Level Jacksonville Center
10:36AM 29.5967 -81.4689 118° Southeast 150 173 3,600 -480 Descending Jacksonville Center
10:37AM 29.5689 -81.4144 120° Southeast 168 193 3,100 -300 Descending Jacksonville Center
10:38AM 29.5456 -81.3694 121° Southeast 168 193 3,000 -60 Descending Jacksonville Center
10:39AM 29.5344 -81.3244 106° East 152 175 3,000  Level Jacksonville Center
10:40AM 29.5275 -81.2694 98° East 152 175 3,000 -600 Level Jacksonville Center
10:41AM 29.5186 -81.2172 101° East 177 204 1,800 -840 Descending Jacksonville Center
10:42AM 29.4950 -81.1794 126° Southeast 145 167 1,300 -540 Descending Jacksonville Center
10:44AM 29.4674 -81.2063 212° Southwest  Level Estimated
10:51AM 29.4667 -81.2000 115° Southeast  Level FlightAware Approximate
10:52AM 29.4674 -81.2063 115° Southeast  Level Estimated
10:53AM 29.4667 -81.2000 115° Southeast  Level FlightAware Approximate